createdAt,value
2022-09-09T00:03:13.212Z,8.30
2022-09-09T00:06:21.953Z,9.05
2022-09-09T00:09:28.882Z,9.77
2022-09-09T00:12:50.123Z,9.32
2022-09-09T00:16:05.481Z,8.77
2022-09-09T00:19:14.456Z,7.90
2022-09-09T00:22:28.690Z,8.77
2022-09-09T00:25:53.516Z,9.23
2022-09-09T00:29:01.754Z,8.23
2022-09-09T00:32:28.536Z,7.17
2022-09-09T00:35:36.844Z,8.50
2022-09-09T00:38:44.914Z,7.90
2022-09-09T00:41:51.286Z,8.85
2022-09-09T00:45:02.664Z,9.93
2022-09-09T00:48:12.382Z,7.57
2022-09-09T00:51:38.375Z,8.90
2022-09-09T00:54:46.857Z,8.45
2022-09-09T00:57:53.501Z,8.10
2022-09-09T01:01:11.708Z,8.43
2022-09-09T01:04:21.562Z,9.30
2022-09-09T01:07:24.418Z,7.43
2022-09-09T01:10:54.666Z,7.82
2022-09-09T01:14:36.315Z,7.70
2022-09-09T01:18:08.807Z,7.43
2022-09-09T01:21:41.274Z,7.53
2022-09-09T01:25:14.989Z,8.00
2022-09-09T01:28:43.267Z,8.48
2022-09-09T01:32:01.563Z,8.77
2022-09-09T01:35:08.596Z,8.43
2022-09-09T01:38:12.215Z,8.70
2022-09-09T01:41:14.861Z,7.97
2022-09-09T01:44:25.917Z,8.65
2022-09-09T01:47:28.654Z,8.48
2022-09-09T01:50:42.476Z,7.07
2022-09-09T01:53:46.933Z,6.80
2022-09-09T01:57:14.812Z,8.52
2022-09-09T02:00:20.081Z,9.18
2022-09-09T02:03:30.182Z,7.40
2022-09-09T02:06:47.008Z,8.55
2022-09-09T02:10:09.687Z,8.17
2022-09-09T02:13:19.850Z,9.52
2022-09-09T02:16:43.701Z,8.07
2022-09-09T02:19:52.470Z,7.85
2022-09-09T02:23:03.752Z,8.75
2022-09-09T02:26:08.913Z,8.43
2022-09-09T02:29:22.279Z,8.15
2022-09-09T02:32:25.668Z,8.48
2022-09-09T02:35:31.359Z,8.68
2022-09-09T02:38:40.828Z,8.15
2022-09-09T02:41:48.426Z,7.60
2022-09-09T02:44:51.665Z,7.00
2022-09-09T02:48:03.601Z,7.95
2022-09-09T02:51:14.571Z,8.25
2022-09-09T02:54:23.217Z,8.98
2022-09-09T02:57:32.181Z,7.43
2022-09-09T03:00:37.094Z,7.85
2022-09-09T03:03:40.949Z,8.75
2022-09-09T03:06:47.540Z,8.45
2022-09-09T03:09:56.213Z,9.23
2022-09-09T03:13:02.187Z,7.57
2022-09-09T03:16:08.664Z,6.55
2022-09-09T03:19:17.673Z,7.60
2022-09-09T03:22:20.632Z,7.28
2022-09-09T03:25:27.347Z,8.05
2022-09-09T03:28:32.624Z,8.67
2022-09-09T03:31:37.493Z,7.45
2022-09-09T03:34:41.313Z,7.50
2022-09-09T03:37:47.243Z,7.78
2022-09-09T03:41:02.462Z,7.47
2022-09-09T03:44:06.272Z,6.97
2022-09-09T03:47:15.181Z,9.90
2022-09-09T03:50:19.633Z,8.15
2022-09-09T03:53:27.964Z,8.02
2022-09-09T03:56:30.493Z,8.23
2022-09-09T03:59:33.179Z,7.30
2022-09-09T04:02:38.346Z,7.72
2022-09-09T04:05:43.337Z,6.63
2022-09-09T04:08:49.746Z,6.60
2022-09-09T04:11:54.204Z,6.93
2022-09-09T04:14:58.028Z,7.33
2022-09-09T04:18:00.641Z,8.25
2022-09-09T04:21:05.609Z,7.25
2022-09-09T04:24:09.824Z,7.90
2022-09-09T04:27:13.277Z,6.97
2022-09-09T04:30:17.583Z,7.83
2022-09-09T04:33:20.682Z,8.50
2022-09-09T04:36:25.075Z,6.80
2022-09-09T04:39:31.542Z,6.55
2022-09-09T04:42:37.112Z,7.97
2022-09-09T04:45:41.574Z,6.80
2022-09-09T04:48:45.104Z,8.10
2022-09-09T04:51:50.421Z,7.35
2022-09-09T04:54:55.398Z,7.10
2022-09-09T04:57:58.691Z,7.95
2022-09-09T05:01:06.449Z,7.40
2022-09-09T05:04:10.068Z,9.13
2022-09-09T05:07:12.612Z,7.25
2022-09-09T05:10:19.118Z,8.00
2022-09-09T05:13:24.010Z,9.30
2022-09-09T05:16:27.330Z,10.27
2022-09-09T05:19:31.707Z,10.77
2022-09-09T05:22:34.912Z,10.63
2022-09-09T05:25:39.030Z,11.20
2022-09-09T05:28:41.695Z,10.48
2022-09-09T05:31:44.315Z,9.90
2022-09-09T05:34:51.102Z,14.05
2022-09-09T05:37:53.916Z,11.88
2022-09-09T05:40:57.909Z,11.48
2022-09-09T05:44:02.211Z,12.18
2022-09-09T05:47:05.337Z,9.17
2022-09-09T05:50:08.750Z,12.60
2022-09-09T05:53:12.576Z,10.55
2022-09-09T05:56:17.361Z,11.48
2022-09-09T05:59:21.814Z,11.52
2022-09-09T06:02:26.678Z,11.37
2022-09-09T06:05:29.662Z,12.63
2022-09-09T06:08:34.854Z,11.25
2022-09-09T06:11:40.373Z,9.88
2022-09-09T06:14:46.422Z,10.23
2022-09-09T06:17:56.482Z,11.07
2022-09-09T06:21:07.657Z,10.63
2022-09-09T06:24:11.240Z,12.10
2022-09-09T06:27:15.644Z,10.27
2022-09-09T06:30:18.628Z,9.48
2022-09-09T06:33:21.779Z,12.37
2022-09-09T06:36:27.931Z,13.00
2022-09-09T06:39:30.831Z,12.88
2022-09-09T06:42:33.920Z,9.95
2022-09-09T06:46:10.762Z,12.05
2022-09-09T06:49:13.646Z,12.27
2022-09-09T06:52:19.290Z,12.10
2022-09-09T06:55:23.147Z,12.90
2022-09-09T06:58:26.339Z,10.40
2022-09-09T07:01:33.698Z,10.63
2022-09-09T07:04:39.025Z,11.17
2022-09-09T07:07:43.074Z,11.57
2022-09-09T07:10:48.381Z,10.57
2022-09-09T07:13:55.403Z,16.42
2022-09-09T07:16:59.974Z,12.98
2022-09-09T07:20:08.561Z,12.90
2022-09-09T07:23:11.143Z,9.85
2022-09-09T07:26:17.185Z,9.82
2022-09-09T07:29:21.409Z,16.40
2022-09-09T07:32:26.719Z,12.75
2022-09-09T07:35:29.626Z,12.27
2022-09-09T07:38:32.894Z,11.23
2022-09-09T07:41:40.969Z,10.95
2022-09-09T07:44:45.997Z,10.95
2022-09-09T07:47:53.818Z,10.95
2022-09-09T07:51:13.316Z,11.83
2022-09-09T07:54:18.456Z,12.27
2022-09-09T07:57:22.590Z,12.07
2022-09-09T08:00:28.197Z,13.57
2022-09-09T08:03:39.356Z,12.63
2022-09-09T08:06:48.913Z,11.47
2022-09-09T08:09:53.132Z,11.73
2022-09-09T08:13:17.304Z,10.95
2022-09-09T08:16:27.059Z,19.42
2022-09-09T08:19:35.188Z,10.68
2022-09-09T08:22:38.850Z,13.13
2022-09-09T08:25:41.846Z,12.05
2022-09-09T08:28:45.701Z,13.15
2022-09-09T08:31:58.583Z,11.07
2022-09-09T08:35:07.948Z,12.73
2022-09-09T08:38:11.324Z,10.83
2022-09-09T08:41:39.371Z,9.25
2022-09-09T08:45:17.651Z,13.02
2022-09-09T08:48:20.476Z,12.60
2022-09-09T08:51:27.521Z,12.55
2022-09-09T08:54:51.745Z,11.30
2022-09-09T08:58:11.498Z,13.07
2022-09-09T09:01:36.995Z,12.48
2022-09-09T09:04:45.699Z,12.98
2022-09-09T09:08:07.747Z,15.25
2022-09-09T09:11:11.132Z,10.13
2022-09-09T09:17:38.894Z,12.50
2022-09-09T09:20:57.030Z,12.93
2022-09-09T09:24:02.111Z,11.10
2022-09-09T09:27:37.020Z,10.57
2022-09-09T09:30:55.070Z,10.60
2022-09-09T09:33:59.327Z,11.70
2022-09-09T09:37:20.265Z,11.13
2022-09-09T09:40:24.283Z,10.63
2022-09-09T09:47:18.678Z,11.60
2022-09-09T09:50:32.679Z,11.05
2022-09-09T09:53:40.577Z,12.40
2022-09-09T09:56:46.712Z,10.43
2022-09-09T09:59:52.384Z,17.23
2022-09-09T10:03:01.815Z,19.15
2022-09-09T10:06:08.056Z,13.75
2022-09-09T10:09:31.131Z,14.40
2022-09-09T10:12:33.655Z,10.98
2022-09-09T10:16:05.542Z,12.03
2022-09-09T10:19:31.032Z,14.27
2022-09-09T10:22:35.383Z,11.77
2022-09-09T10:25:43.717Z,11.65
2022-09-09T10:28:56.495Z,13.13
2022-09-09T10:32:32.857Z,12.03
2022-09-09T10:36:14.966Z,12.10
2022-09-09T10:39:44.784Z,10.82
2022-09-09T10:42:47.920Z,11.45
2022-09-09T10:46:02.753Z,12.20
2022-09-09T10:49:23.196Z,10.30
2022-09-09T10:52:44.035Z,12.02
2022-09-09T10:55:58.037Z,13.93
2022-09-09T10:59:14.777Z,14.35
2022-09-09T11:02:32.026Z,13.75
2022-09-09T11:05:45.945Z,11.13
2022-09-09T11:08:53.787Z,10.20
2022-09-09T11:12:04.989Z,12.02
2022-09-09T11:15:18.327Z,10.70
2022-09-09T11:18:25.429Z,11.40
2022-09-09T11:21:39.376Z,10.43
2022-09-09T11:24:52.590Z,11.63
2022-09-09T11:28:48.825Z,10.27
2022-09-09T11:31:57.003Z,9.75
2022-09-09T11:35:28.718Z,9.05
2022-09-09T11:38:47.961Z,12.37
2022-09-09T11:41:51.719Z,9.55
2022-09-09T11:44:56.101Z,10.25
2022-09-09T11:48:02.656Z,9.68
2022-09-09T11:51:16.637Z,10.68
2022-09-09T11:54:34.771Z,11.40
2022-09-09T11:57:38.387Z,9.25
2022-09-09T12:00:45.436Z,7.68
2022-09-09T12:03:57.144Z,8.93
2022-09-09T12:07:04.231Z,9.73
2022-09-09T12:10:09.467Z,11.13
2022-09-09T12:13:25.242Z,9.98
2022-09-09T12:16:39.557Z,11.10
2022-09-09T12:19:43.174Z,9.60
2022-09-09T12:22:51.436Z,9.25
2022-09-09T12:26:36.318Z,8.27
2022-09-09T12:29:47.231Z,7.82
2022-09-09T12:33:02.020Z,8.00
2022-09-09T12:36:09.245Z,8.18
2022-09-09T12:39:46.701Z,7.13
2022-09-09T12:42:49.841Z,11.30
2022-09-09T12:46:04.999Z,8.63
2022-09-09T12:49:25.671Z,8.07
2022-09-09T12:52:38.428Z,6.90
2022-09-09T12:55:51.643Z,8.80
2022-09-09T12:58:57.099Z,6.07
2022-09-09T13:02:00.661Z,9.65
2022-09-09T13:05:26.128Z,7.65
2022-09-09T13:08:28.917Z,8.75
2022-09-09T13:11:50.387Z,7.97
2022-09-09T13:14:57.833Z,10.57
2022-09-09T13:18:05.516Z,25.58
2022-09-09T13:21:08.650Z,14.50
2022-09-09T13:24:30.415Z,8.70
2022-09-09T13:27:40.016Z,7.80
2022-09-09T13:30:44.037Z,8.43
2022-09-09T13:33:46.831Z,9.95
2022-09-09T13:36:56.794Z,8.68
2022-09-09T13:40:03.748Z,8.75
2022-09-09T13:43:06.531Z,10.15
2022-09-09T13:46:35.613Z,7.87
2022-09-09T13:49:44.023Z,8.88
2022-09-09T13:52:48.484Z,7.78
2022-09-09T13:55:53.388Z,7.25
2022-09-09T13:58:56.095Z,8.00
2022-09-09T14:01:59.547Z,4.17
2022-09-09T14:05:02.445Z,7.45
2022-09-09T14:08:06.647Z,4.90
2022-09-09T14:11:13.273Z,4.32
2022-09-09T14:14:16.026Z,7.40
2022-09-09T14:17:18.670Z,6.20
2022-09-09T14:20:22.045Z,4.95
2022-09-09T14:23:25.444Z,6.50
2022-09-09T14:26:29.912Z,4.78
2022-09-09T14:29:34.104Z,5.03
2022-09-09T14:32:37.639Z,3.63
2022-09-09T14:35:42.163Z,5.07
2022-09-09T14:38:44.798Z,6.10
2022-09-09T14:41:47.500Z,5.68
2022-09-09T14:44:50.048Z,5.60
2022-09-09T14:47:53.038Z,3.83
2022-09-09T14:50:56.449Z,5.15
2022-09-09T14:54:00.336Z,5.85
2022-09-09T14:57:03.363Z,3.58
2022-09-09T15:00:07.112Z,4.78
2022-09-09T15:03:11.792Z,3.30
2022-09-09T15:06:15.513Z,4.63
2022-09-09T15:09:18.131Z,4.85
2022-09-09T15:12:21.434Z,6.10
2022-09-09T15:15:23.898Z,7.30
2022-09-09T15:18:26.446Z,9.97
2022-09-09T15:21:31.934Z,10.35
2022-09-09T15:24:35.885Z,6.22
2022-09-09T15:27:40.182Z,6.65
2022-09-09T15:30:43.406Z,7.57
2022-09-09T15:34:12.452Z,7.07
2022-09-09T15:37:15.044Z,7.82
2022-09-09T15:40:17.616Z,7.05
2022-09-09T15:43:20.106Z,7.65
2022-09-09T15:46:28.469Z,8.65
2022-09-09T15:49:31.279Z,7.33
2022-09-09T15:52:34.320Z,7.55
2022-09-09T15:55:37.047Z,7.00
2022-09-09T15:58:39.874Z,10.23
2022-09-09T16:01:43.403Z,6.63
2022-09-09T16:04:46.322Z,8.57
2022-09-09T16:07:49.081Z,7.50
2022-09-09T16:10:52.068Z,6.93
2022-09-09T16:13:56.008Z,6.70
2022-09-09T16:16:58.549Z,6.28
2022-09-09T16:20:01.298Z,6.47
2022-09-09T16:23:03.896Z,9.57
2022-09-09T16:26:06.484Z,8.20
2022-09-09T16:29:09.910Z,6.80
2022-09-09T16:32:13.046Z,6.43
2022-09-09T16:35:15.654Z,8.93
2022-09-09T16:38:18.202Z,7.97
2022-09-09T16:41:21.146Z,7.22
2022-09-09T16:44:23.761Z,7.78
2022-09-09T16:47:26.424Z,6.15
2022-09-09T16:50:28.989Z,5.47
2022-09-09T16:53:31.576Z,6.20
2022-09-09T16:56:38.103Z,6.55
2022-09-09T16:59:41.343Z,7.45
2022-09-09T17:02:46.439Z,7.00
2022-09-09T17:05:48.948Z,7.53
2022-09-09T17:09:02.601Z,6.13
2022-09-09T17:12:06.182Z,6.82
2022-09-09T17:15:08.959Z,5.95
2022-09-09T17:18:12.202Z,6.53
2022-09-09T17:21:19.431Z,5.20
2022-09-09T17:24:22.864Z,6.75
2022-09-09T17:27:25.389Z,7.10
2022-09-09T17:30:28.522Z,8.02
2022-09-09T17:33:31.991Z,5.85
2022-09-09T17:36:35.312Z,6.10
2022-09-09T17:39:38.795Z,7.95
2022-09-09T17:42:41.763Z,4.95
2022-09-09T17:45:47.498Z,5.35
2022-09-09T17:48:52.704Z,6.10
2022-09-09T17:51:56.289Z,4.03
2022-09-09T17:54:59.246Z,5.88
2022-09-09T17:58:01.733Z,5.95
2022-09-09T18:01:10.300Z,5.80
2022-09-09T18:04:15.638Z,6.15
2022-09-09T18:07:18.119Z,6.10
2022-09-09T18:10:20.589Z,8.10
2022-09-09T18:13:23.310Z,6.70
2022-09-09T18:16:27.449Z,6.45
2022-09-09T18:19:33.050Z,5.65
2022-09-09T18:22:35.736Z,5.97
2022-09-09T18:25:41.774Z,5.63
2022-09-09T18:28:49.326Z,6.47
2022-09-09T18:31:54.134Z,6.90
2022-09-09T18:34:59.415Z,5.53
2022-09-09T18:38:02.350Z,5.50
2022-09-09T18:41:21.797Z,7.40
2022-09-09T18:44:26.822Z,7.70
2022-09-09T18:47:29.726Z,5.25
2022-09-09T18:50:34.548Z,6.15
2022-09-09T18:53:38.553Z,6.77
2022-09-09T18:56:41.688Z,6.97
2022-09-09T18:59:45.729Z,7.43
2022-09-09T19:02:52.841Z,8.07
2022-09-09T19:06:06.903Z,5.68
2022-09-09T19:09:14.862Z,6.73
2022-09-09T19:12:17.858Z,6.50
2022-09-09T19:15:21.292Z,5.82
2022-09-09T19:18:24.487Z,5.60
2022-09-09T19:21:33.823Z,6.85
2022-09-09T19:24:37.726Z,8.60
2022-09-09T19:27:40.419Z,6.30
2022-09-09T19:30:48.006Z,6.95
2022-09-09T19:33:53.006Z,6.30
2022-09-09T19:36:55.601Z,5.82
2022-09-09T19:39:58.829Z,5.83
2022-09-09T19:43:01.827Z,6.72
2022-09-09T19:46:07.336Z,6.43
2022-09-09T19:49:10.025Z,6.93
2022-09-09T19:52:12.781Z,6.50
2022-09-09T19:55:15.397Z,5.27
2022-09-09T19:58:18.673Z,8.02
2022-09-09T20:01:35.507Z,5.82
2022-09-09T20:04:43.341Z,6.82
2022-09-09T20:07:45.860Z,6.38
2022-09-09T20:10:54.487Z,5.77
2022-09-09T20:13:57.208Z,7.28
2022-09-09T20:16:59.865Z,8.27
2022-09-09T20:20:05.124Z,6.13
2022-09-09T20:23:09.015Z,5.82
2022-09-09T20:26:14.675Z,6.80
2022-09-09T20:29:19.913Z,7.47
2022-09-09T20:32:22.425Z,6.30
2022-09-09T20:35:25.384Z,7.20
2022-09-09T20:38:27.938Z,6.47
2022-09-09T20:41:32.635Z,6.57
2022-09-09T20:44:35.154Z,6.85
2022-09-09T20:47:37.585Z,6.22
2022-09-09T20:50:40.437Z,6.65
2022-09-09T20:53:43.624Z,7.88
2022-09-09T20:56:46.853Z,7.53
2022-09-09T20:59:51.109Z,6.18
2022-09-09T21:02:53.626Z,6.63
2022-09-09T21:05:58.216Z,7.50
2022-09-09T21:09:00.959Z,7.43
2022-09-09T21:12:03.597Z,8.83
2022-09-09T21:15:06.586Z,6.82
2022-09-09T21:18:11.410Z,6.80
2022-09-09T21:21:15.002Z,6.57
2022-09-09T21:24:17.600Z,7.68
2022-09-09T21:27:20.611Z,7.90
2022-09-09T21:30:31.210Z,6.80
2022-09-09T21:33:38.181Z,6.38
2022-09-09T21:36:41.021Z,6.35
2022-09-09T21:39:43.612Z,6.45
2022-09-09T21:42:46.495Z,7.30
2022-09-09T21:45:50.921Z,6.10
2022-09-09T21:48:56.448Z,6.20
2022-09-09T21:51:59.275Z,6.85
2022-09-09T21:55:01.747Z,6.55
2022-09-09T21:58:08.624Z,6.73
2022-09-09T22:01:14.827Z,7.32
2022-09-09T22:04:17.429Z,7.60
2022-09-09T22:07:21.534Z,7.78
2022-09-09T22:10:27.146Z,7.47
2022-09-09T22:13:30.077Z,6.50
2022-09-09T22:16:32.560Z,6.70
2022-09-09T22:19:35.750Z,6.82
2022-09-09T22:22:39.228Z,6.55
2022-09-09T22:25:42.058Z,6.50
2022-09-09T22:28:44.711Z,6.60
2022-09-09T22:31:47.389Z,6.80
2022-09-09T22:34:51.298Z,8.35
2022-09-09T22:37:55.904Z,7.13
2022-09-09T22:40:58.734Z,7.43
2022-09-09T22:44:01.277Z,8.40
2022-09-09T22:47:04.094Z,6.53
2022-09-09T22:50:07.126Z,6.07
2022-09-09T22:53:14.039Z,6.68
2022-09-09T22:56:19.156Z,6.65
2022-09-09T22:59:22.416Z,6.77
2022-09-09T23:02:26.632Z,8.10
2022-09-09T23:05:29.136Z,6.93
2022-09-09T23:08:35.547Z,6.63
2022-09-09T23:11:38.793Z,6.57
2022-09-09T23:14:41.546Z,7.33
2022-09-09T23:17:45.046Z,6.43
2022-09-09T23:20:58.724Z,7.22
2022-09-09T23:24:01.828Z,7.18
2022-09-09T23:27:04.527Z,7.32
2022-09-09T23:30:09.234Z,7.47
2022-09-09T23:33:11.875Z,6.78
2022-09-09T23:36:19.250Z,6.35
2022-09-09T23:39:23.262Z,6.60
2022-09-09T23:42:26.991Z,6.90
2022-09-09T23:45:29.549Z,6.40
2022-09-09T23:48:32.272Z,6.80
2022-09-09T23:51:35.654Z,6.28
2022-09-09T23:54:38.143Z,7.35
2022-09-09T23:57:42.044Z,6.78
